sensor_id;sensor_type;location;lat;lon;timestamp;P1;durP1;ratioP1;P2;durP2;ratioP2
3767;SDS011;1899;49.966;7.106;2023-04-24T04:00:37;7.10;;;5.70;;
3767;SDS011;1899;49.966;7.106;2023-04-24T04:03:05;6.50;;;5.90;;
3767;SDS011;1899;49.966;7.106;2023-04-24T04:05:30;6.37;;;5.30;;
3767;SDS011;1899;49.966;7.106;2023-04-24T04:07:55;6.03;;;5.43;;
3767;SDS011;1899;49.966;7.106;2023-04-24T04:10:20;6.53;;;5.50;;
3767;SDS011;1899;49.966;7.106;2023-04-24T04:12:46;7.97;;;5.80;;
3767;SDS011;1899;49.966;7.106;2023-04-24T04:15:11;5.20;;;4.70;;
3767;SDS011;1899;49.966;7.106;2023-04-24T04:17:36;6.43;;;5.63;;
3767;SDS011;1899;49.966;7.106;2023-04-24T04:20:03;5.93;;;5.33;;
3767;SDS011;1899;49.966;7.106;2023-04-24T04:22:32;5.60;;;5.00;;
3767;SDS011;1899;49.966;7.106;2023-04-24T04:24:57;6.40;;;5.40;;
3767;SDS011;1899;49.966;7.106;2023-04-24T04:27:22;7.27;;;5.37;;
3767;SDS011;1899;49.966;7.106;2023-04-24T04:29:47;6.63;;;6.00;;
3767;SDS011;1899;49.966;7.106;2023-04-24T04:32:13;5.97;;;5.13;;
3767;SDS011;1899;49.966;7.106;2023-04-24T04:34:38;6.60;;;5.47;;
3767;SDS011;1899;49.966;7.106;2023-04-24T04:37:04;5.77;;;5.27;;
3767;SDS011;1899;49.966;7.106;2023-04-24T04:39:30;5.83;;;5.27;;
3767;SDS011;1899;49.966;7.106;2023-04-24T04:41:56;5.80;;;5.20;;
3767;SDS011;1899;49.966;7.106;2023-04-24T04:44:21;7.20;;;6.00;;
3767;SDS011;1899;49.966;7.106;2023-04-24T04:46:47;6.80;;;6.10;;
3767;SDS011;1899;49.966;7.106;2023-04-24T04:49:12;7.03;;;6.00;;
3767;SDS011;1899;49.966;7.106;2023-04-24T04:51:38;7.13;;;6.43;;
3767;SDS011;1899;49.966;7.106;2023-04-24T04:54:03;6.03;;;5.53;;
3767;SDS011;1899;49.966;7.106;2023-04-24T04:56:28;8.90;;;6.10;;
3767;SDS011;1899;49.966;7.106;2023-04-24T04:58:53;7.30;;;6.37;;
3767;SDS011;1899;49.966;7.106;2023-04-24T05:01:19;8.00;;;6.33;;
3767;SDS011;1899;49.966;7.106;2023-04-24T05:03:44;8.73;;;6.17;;
3767;SDS011;1899;49.966;7.106;2023-04-24T05:06:09;7.60;;;6.23;;
3767;SDS011;1899;49.966;7.106;2023-04-24T05:08:35;6.93;;;6.23;;
3767;SDS011;1899;49.966;7.106;2023-04-24T05:11:00;8.40;;;6.83;;
3767;SDS011;1899;49.966;7.106;2023-04-24T05:13:25;9.70;;;6.90;;
3767;SDS011;1899;49.966;7.106;2023-04-24T05:15:51;8.17;;;7.33;;
3767;SDS011;1899;49.966;7.106;2023-04-24T05:18:16;8.57;;;7.07;;
3767;SDS011;1899;49.966;7.106;2023-04-24T05:20:41;7.10;;;6.23;;
3767;SDS011;1899;49.966;7.106;2023-04-24T05:23:08;8.17;;;6.00;;
3767;SDS011;1899;49.966;7.106;2023-04-24T05:25:34;6.70;;;6.10;;
3767;SDS011;1899;49.966;7.106;2023-04-24T05:28:00;8.90;;;5.93;;
3767;SDS011;1899;49.966;7.106;2023-04-24T05:30:25;6.63;;;6.00;;
3767;SDS011;1899;49.966;7.106;2023-04-24T05:32:51;7.13;;;6.37;;
3767;SDS011;1899;49.966;7.106;2023-04-24T05:35:16;9.73;;;6.60;;
3767;SDS011;1899;49.966;7.106;2023-04-24T05:37:41;7.90;;;6.17;;
3767;SDS011;1899;49.966;7.106;2023-04-24T05:40:06;7.00;;;6.30;;
3767;SDS011;1899;49.966;7.106;2023-04-24T05:42:32;5.97;;;5.40;;
3767;SDS011;1899;49.966;7.106;2023-04-24T05:44:57;8.83;;;5.93;;
3767;SDS011;1899;49.966;7.106;2023-04-24T05:47:22;9.23;;;6.50;;
3767;SDS011;1899;49.966;7.106;2023-04-24T05:49:48;6.87;;;6.17;;
3767;SDS011;1899;49.966;7.106;2023-04-24T05:52:13;6.30;;;5.70;;
3767;SDS011;1899;49.966;7.106;2023-04-24T05:54:38;7.57;;;6.80;;
3767;SDS011;1899;49.966;7.106;2023-04-24T05:57:04;7.27;;;5.80;;
3767;SDS011;1899;49.966;7.106;2023-04-24T05:59:32;7.13;;;6.07;;
3767;SDS011;1899;49.966;7.106;2023-04-24T06:01:58;7.13;;;6.20;;
3767;SDS011;1899;49.966;7.106;2023-04-24T06:04:23;5.97;;;5.37;;
3767;SDS011;1899;49.966;7.106;2023-04-24T06:06:48;7.07;;;6.37;;
3767;SDS011;1899;49.966;7.106;2023-04-24T06:09:16;7.23;;;5.50;;
3767;SDS011;1899;49.966;7.106;2023-04-24T06:11:41;6.00;;;5.00;;
3767;SDS011;1899;49.966;7.106;2023-04-24T06:14:07;6.97;;;5.40;;
3767;SDS011;1899;49.966;7.106;2023-04-24T06:16:32;7.50;;;5.43;;
3767;SDS011;1899;49.966;7.106;2023-04-24T06:18:58;5.87;;;4.83;;
3767;SDS011;1899;49.966;7.106;2023-04-24T06:21:23;5.70;;;4.77;;
3767;SDS011;1899;49.966;7.106;2023-04-24T06:23:48;4.93;;;4.43;;
3767;SDS011;1899;49.966;7.106;2023-04-24T06:26:14;5.60;;;5.10;;
3767;SDS011;1899;49.966;7.106;2023-04-24T06:28:39;4.80;;;4.40;;
3767;SDS011;1899;49.966;7.106;2023-04-24T06:31:05;4.20;;;3.80;;
3767;SDS011;1899;49.966;7.106;2023-04-24T06:33:30;5.00;;;4.20;;
3767;SDS011;1899;49.966;7.106;2023-04-24T06:35:55;4.93;;;4.30;;
3767;SDS011;1899;49.966;7.106;2023-04-24T06:38:21;4.20;;;3.80;;
3767;SDS011;1899;49.966;7.106;2023-04-24T06:40:46;6.23;;;4.67;;
3767;SDS011;1899;49.966;7.106;2023-04-24T06:43:11;5.93;;;4.60;;
3767;SDS011;1899;49.966;7.106;2023-04-24T06:45:37;7.23;;;5.23;;
3767;SDS011;1899;49.966;7.106;2023-04-24T06:48:04;5.23;;;4.73;;
3767;SDS011;1899;49.966;7.106;2023-04-24T06:50:29;6.27;;;4.30;;
3767;SDS011;1899;49.966;7.106;2023-04-24T06:52:54;5.63;;;4.07;;
3767;SDS011;1899;49.966;7.106;2023-04-24T06:55:19;5.07;;;4.20;;
3767;SDS011;1899;49.966;7.106;2023-04-24T06:57:45;5.13;;;4.30;;
3767;SDS011;1899;49.966;7.106;2023-04-24T07:00:10;6.37;;;4.60;;
3767;SDS011;1899;49.966;7.106;2023-04-24T07:02:36;5.13;;;4.60;;
3767;SDS011;1899;49.966;7.106;2023-04-24T07:05:02;6.50;;;4.60;;
3767;SDS011;1899;49.966;7.106;2023-04-24T07:07:27;5.30;;;4.70;;
3767;SDS011;1899;49.966;7.106;2023-04-24T07:09:53;5.33;;;4.70;;
3767;SDS011;1899;49.966;7.106;2023-04-24T07:12:19;4.80;;;4.13;;
3767;SDS011;1899;49.966;7.106;2023-04-24T07:14:45;4.70;;;4.30;;
3767;SDS011;1899;49.966;7.106;2023-04-24T07:17:11;4.27;;;3.87;;
3767;SDS011;1899;49.966;7.106;2023-04-24T07:19:38;4.50;;;3.97;;
3767;SDS011;1899;49.966;7.106;2023-04-24T07:22:03;4.47;;;4.07;;
3767;SDS011;1899;49.966;7.106;2023-04-24T07:24:28;5.03;;;4.53;;
3767;SDS011;1899;49.966;7.106;2023-04-24T07:26:54;5.40;;;4.13;;
3767;SDS011;1899;49.966;7.106;2023-04-24T07:29:20;6.53;;;4.17;;
3767;SDS011;1899;49.966;7.106;2023-04-24T07:31:46;4.80;;;4.40;;
3767;SDS011;1899;49.966;7.106;2023-04-24T07:34:11;4.80;;;4.30;;
3767;SDS011;1899;49.966;7.106;2023-04-24T07:36:36;5.80;;;4.80;;
3767;SDS011;1899;49.966;7.106;2023-04-24T07:39:03;5.70;;;5.20;;
3767;SDS011;1899;49.966;7.106;2023-04-24T07:41:28;6.20;;;4.50;;
3767;SDS011;1899;49.966;7.106;2023-04-24T07:43:54;6.80;;;4.27;;
3767;SDS011;1899;49.966;7.106;2023-04-24T07:46:19;5.23;;;4.73;;
3767;SDS011;1899;49.966;7.106;2023-04-24T07:48:45;5.03;;;4.57;;
3767;SDS011;1899;49.966;7.106;2023-04-24T07:51:11;4.60;;;4.20;;
3767;SDS011;1899;49.966;7.106;2023-04-24T07:53:38;4.13;;;3.80;;
3767;SDS011;1899;49.966;7.106;2023-04-24T07:56:04;6.53;;;4.80;;
3767;SDS011;1899;49.966;7.106;2023-04-24T07:58:29;7.53;;;5.63;;
3767;SDS011;1899;49.966;7.106;2023-04-24T08:00:54;5.13;;;4.63;;
3767;SDS011;1899;49.966;7.106;2023-04-24T08:03:19;5.20;;;4.70;;
3767;SDS011;1899;49.966;7.106;2023-04-24T08:05:45;4.30;;;3.97;;
3767;SDS011;1899;49.966;7.106;2023-04-24T08:08:10;7.40;;;4.80;;
3767;SDS011;1899;49.966;7.106;2023-04-24T08:10:35;5.07;;;4.50;;
3767;SDS011;1899;49.966;7.106;2023-04-24T08:13:01;6.17;;;4.97;;
3767;SDS011;1899;49.966;7.106;2023-04-24T08:15:27;4.80;;;4.40;;
3767;SDS011;1899;49.966;7.106;2023-04-24T08:17:52;5.17;;;4.67;;
3767;SDS011;1899;49.966;7.106;2023-04-24T08:20:17;4.37;;;3.80;;
3767;SDS011;1899;49.966;7.106;2023-04-24T08:22:43;5.07;;;4.17;;
3767;SDS011;1899;49.966;7.106;2023-04-24T08:25:08;5.50;;;3.90;;
3767;SDS011;1899;49.966;7.106;2023-04-24T08:27:34;4.77;;;4.30;;
3767;SDS011;1899;49.966;7.106;2023-04-24T08:29:59;4.20;;;3.80;;
3767;SDS011;1899;49.966;7.106;2023-04-24T08:32:25;4.43;;;4.03;;
3767;SDS011;1899;49.966;7.106;2023-04-24T08:34:52;6.40;;;3.50;;
3767;SDS011;1899;49.966;7.106;2023-04-24T08:37:18;6.57;;;4.63;;
3767;SDS011;1899;49.966;7.106;2023-04-24T08:39:43;4.30;;;3.90;;
3767;SDS011;1899;49.966;7.106;2023-04-24T08:42:08;5.17;;;4.40;;
3767;SDS011;1899;49.966;7.106;2023-04-24T08:44:35;3.93;;;3.60;;
3767;SDS011;1899;49.966;7.106;2023-04-24T08:47:04;3.67;;;3.00;;
3767;SDS011;1899;49.966;7.106;2023-04-24T08:49:30;4.90;;;3.77;;
3767;SDS011;1899;49.966;7.106;2023-04-24T08:51:55;3.77;;;3.47;;
3767;SDS011;1899;49.966;7.106;2023-04-24T08:54:21;5.13;;;4.30;;
3767;SDS011;1899;49.966;7.106;2023-04-24T08:56:47;4.00;;;3.60;;
3767;SDS011;1899;49.966;7.106;2023-04-24T08:59:13;3.97;;;3.57;;
3767;SDS011;1899;49.966;7.106;2023-04-24T09:01:39;3.47;;;3.17;;
3767;SDS011;1899;49.966;7.106;2023-04-24T09:04:04;5.10;;;3.67;;
3767;SDS011;1899;49.966;7.106;2023-04-24T09:06:31;4.90;;;4.07;;
3767;SDS011;1899;49.966;7.106;2023-04-24T09:08:57;4.90;;;4.00;;
3767;SDS011;1899;49.966;7.106;2023-04-24T09:11:24;4.67;;;3.80;;
3767;SDS011;1899;49.966;7.106;2023-04-24T09:13:49;9.13;;;4.73;;
3767;SDS011;1899;49.966;7.106;2023-04-24T09:16:16;3.97;;;3.53;;
3767;SDS011;1899;49.966;7.106;2023-04-24T09:18:41;8.70;;;4.20;;
3767;SDS011;1899;49.966;7.106;2023-04-24T09:21:07;8.37;;;4.63;;
3767;SDS011;1899;49.966;7.106;2023-04-24T09:23:33;5.40;;;4.50;;
3767;SDS011;1899;49.966;7.106;2023-04-24T09:25:59;7.80;;;4.60;;
3767;SDS011;1899;49.966;7.106;2023-04-24T09:28:46;8.60;;;4.90;;
3767;SDS011;1899;49.966;7.106;2023-04-24T09:31:15;6.83;;;5.13;;
3767;SDS011;1899;49.966;7.106;2023-04-24T09:33:53;5.03;;;4.40;;
3767;SDS011;1899;49.966;7.106;2023-04-24T09:36:18;7.20;;;5.10;;
3767;SDS011;1899;49.966;7.106;2023-04-24T09:38:44;5.40;;;4.23;;
3767;SDS011;1899;49.966;7.106;2023-04-24T09:41:10;4.43;;;4.03;;
3767;SDS011;1899;49.966;7.106;2023-04-24T09:43:38;6.43;;;4.43;;
3767;SDS011;1899;49.966;7.106;2023-04-24T09:46:07;4.03;;;3.70;;
3767;SDS011;1899;49.966;7.106;2023-04-24T09:48:33;3.33;;;3.03;;
3767;SDS011;1899;49.966;7.106;2023-04-24T09:50:59;3.93;;;3.63;;
3767;SDS011;1899;49.966;7.106;2023-04-24T09:53:25;4.40;;;2.93;;
3767;SDS011;1899;49.966;7.106;2023-04-24T09:55:51;3.43;;;3.13;;
3767;SDS011;1899;49.966;7.106;2023-04-24T09:58:18;3.13;;;2.60;;
3767;SDS011;1899;49.966;7.106;2023-04-24T10:00:43;2.43;;;2.23;;
3767;SDS011;1899;49.966;7.106;2023-04-24T10:03:10;5.23;;;2.50;;
3767;SDS011;1899;49.966;7.106;2023-04-24T10:05:36;3.07;;;2.03;;
3767;SDS011;1899;49.966;7.106;2023-04-24T10:08:03;2.37;;;2.17;;
3767;SDS011;1899;49.966;7.106;2023-04-24T10:10:29;2.80;;;2.03;;
3767;SDS011;1899;49.966;7.106;2023-04-24T10:12:55;3.00;;;2.80;;
3767;SDS011;1899;49.966;7.106;2023-04-24T10:15:20;4.13;;;2.50;;
3767;SDS011;1899;49.966;7.106;2023-04-24T10:17:49;2.50;;;2.30;;
3767;SDS011;1899;49.966;7.106;2023-04-24T10:20:19;2.97;;;2.47;;
3767;SDS011;1899;49.966;7.106;2023-04-24T10:22:46;2.90;;;2.60;;
3767;SDS011;1899;49.966;7.106;2023-04-24T10:25:14;2.83;;;2.53;;
3767;SDS011;1899;49.966;7.106;2023-04-24T10:27:41;4.50;;;2.70;;
3767;SDS011;1899;49.966;7.106;2023-04-24T10:30:06;2.83;;;2.63;;
3767;SDS011;1899;49.966;7.106;2023-04-24T10:32:32;4.00;;;2.80;;
3767;SDS011;1899;49.966;7.106;2023-04-24T10:34:57;3.40;;;2.33;;
3767;SDS011;1899;49.966;7.106;2023-04-24T10:37:23;3.40;;;2.80;;
3767;SDS011;1899;49.966;7.106;2023-04-24T10:39:49;3.93;;;3.53;;
3767;SDS011;1899;49.966;7.106;2023-04-24T10:42:16;2.63;;;2.43;;
3767;SDS011;1899;49.966;7.106;2023-04-24T10:44:41;4.00;;;3.50;;
3767;SDS011;1899;49.966;7.106;2023-04-24T10:47:07;3.63;;;3.30;;
3767;SDS011;1899;49.966;7.106;2023-04-24T10:49:37;4.17;;;3.80;;
3767;SDS011;1899;49.966;7.106;2023-04-24T10:52:03;3.83;;;3.53;;
3767;SDS011;1899;49.966;7.106;2023-04-24T10:54:44;5.53;;;3.67;;
3767;SDS011;1899;49.966;7.106;2023-04-24T10:59:52;2.63;;;2.43;;
3767;SDS011;1899;49.966;7.106;2023-04-24T11:02:36;4.73;;;3.57;;
3767;SDS011;1899;49.966;7.106;2023-04-24T11:05:05;4.90;;;4.03;;
3767;SDS011;1899;49.966;7.106;2023-04-24T11:08:05;3.63;;;3.33;;
3767;SDS011;1899;49.966;7.106;2023-04-24T11:10:25;4.20;;;3.70;;
3767;SDS011;1899;49.966;7.106;2023-04-24T11:12:50;5.33;;;4.27;;
3767;SDS011;1899;49.966;7.106;2023-04-24T11:15:16;6.00;;;4.00;;
3767;SDS011;1899;49.966;7.106;2023-04-24T11:17:44;6.30;;;4.20;;
3767;SDS011;1899;49.966;7.106;2023-04-24T11:20:11;3.73;;;3.37;;
3767;SDS011;1899;49.966;7.106;2023-04-24T11:22:38;8.80;;;3.77;;
3767;SDS011;1899;49.966;7.106;2023-04-24T11:25:05;5.03;;;4.57;;
3767;SDS011;1899;49.966;7.106;2023-04-24T11:27:32;3.83;;;3.53;;
3767;SDS011;1899;49.966;7.106;2023-04-24T11:30:03;5.93;;;4.13;;
3767;SDS011;1899;49.966;7.106;2023-04-24T11:32:29;5.77;;;4.27;;
3767;SDS011;1899;49.966;7.106;2023-04-24T11:34:56;10.10;;;5.10;;
3767;SDS011;1899;49.966;7.106;2023-04-24T11:37:22;10.50;;;4.90;;
3767;SDS011;1899;49.966;7.106;2023-04-24T11:39:50;8.20;;;4.53;;
3767;SDS011;1899;49.966;7.106;2023-04-24T11:42:15;5.30;;;4.40;;
3767;SDS011;1899;49.966;7.106;2023-04-24T11:44:41;5.80;;;4.07;;
3767;SDS011;1899;49.966;7.106;2023-04-24T11:47:06;5.83;;;4.37;;
3767;SDS011;1899;49.966;7.106;2023-04-24T11:49:37;5.60;;;3.80;;
3767;SDS011;1899;49.966;7.106;2023-04-24T11:52:03;6.40;;;4.23;;
3767;SDS011;1899;49.966;7.106;2023-04-24T11:54:28;3.90;;;3.53;;
3767;SDS011;1899;49.966;7.106;2023-04-24T11:56:55;4.27;;;3.87;;
3767;SDS011;1899;49.966;7.106;2023-04-24T11:59:21;6.93;;;3.60;;
3767;SDS011;1899;49.966;7.106;2023-04-24T12:01:46;4.80;;;3.83;;
3767;SDS011;1899;49.966;7.106;2023-04-24T12:04:13;5.37;;;4.10;;
3767;SDS011;1899;49.966;7.106;2023-04-24T12:06:38;7.63;;;3.53;;
3767;SDS011;1899;49.966;7.106;2023-04-24T12:09:03;6.23;;;4.40;;
3767;SDS011;1899;49.966;7.106;2023-04-24T12:11:29;5.17;;;4.30;;
3767;SDS011;1899;49.966;7.106;2023-04-24T12:13:54;5.90;;;4.33;;
3767;SDS011;1899;49.966;7.106;2023-04-24T12:16:20;6.87;;;4.23;;
3767;SDS011;1899;49.966;7.106;2023-04-24T12:18:45;6.10;;;4.40;;
3767;SDS011;1899;49.966;7.106;2023-04-24T12:21:17;5.33;;;4.67;;
3767;SDS011;1899;49.966;7.106;2023-04-24T12:23:43;4.63;;;4.23;;
3767;SDS011;1899;49.966;7.106;2023-04-24T12:26:09;4.70;;;4.30;;
3767;SDS011;1899;49.966;7.106;2023-04-24T12:28:38;5.97;;;4.20;;
3767;SDS011;1899;49.966;7.106;2023-04-24T12:31:03;4.93;;;4.13;;
3767;SDS011;1899;49.966;7.106;2023-04-24T12:33:32;8.33;;;4.43;;
3767;SDS011;1899;49.966;7.106;2023-04-24T12:35:57;5.00;;;4.13;;
3767;SDS011;1899;49.966;7.106;2023-04-24T12:38:23;5.53;;;3.97;;
3767;SDS011;1899;49.966;7.106;2023-04-24T12:41:04;6.30;;;4.07;;
3767;SDS011;1899;49.966;7.106;2023-04-24T12:43:30;6.87;;;4.90;;
3767;SDS011;1899;49.966;7.106;2023-04-24T12:45:55;6.63;;;4.27;;
3767;SDS011;1899;49.966;7.106;2023-04-24T12:48:20;5.03;;;4.37;;
3767;SDS011;1899;49.966;7.106;2023-04-24T12:50:47;6.13;;;4.00;;
3767;SDS011;1899;49.966;7.106;2023-04-24T12:53:12;4.30;;;3.90;;
3767;SDS011;1899;49.966;7.106;2023-04-24T12:55:37;5.23;;;4.00;;
3767;SDS011;1899;49.966;7.106;2023-04-24T12:58:03;3.40;;;3.10;;
3767;SDS011;1899;49.966;7.106;2023-04-24T13:00:28;8.37;;;4.83;;
3767;SDS011;1899;49.966;7.106;2023-04-24T13:02:53;7.63;;;4.03;;
3767;SDS011;1899;49.966;7.106;2023-04-24T13:05:19;7.83;;;4.23;;
3767;SDS011;1899;49.966;7.106;2023-04-24T13:07:44;4.63;;;4.17;;
3767;SDS011;1899;49.966;7.106;2023-04-24T13:10:09;5.53;;;5.03;;
3767;SDS011;1899;49.966;7.106;2023-04-24T13:12:35;5.97;;;4.93;;
3767;SDS011;1899;49.966;7.106;2023-04-24T13:15:00;5.53;;;4.43;;
3767;SDS011;1899;49.966;7.106;2023-04-24T13:17:25;5.90;;;4.40;;
3767;SDS011;1899;49.966;7.106;2023-04-24T13:19:51;7.10;;;4.67;;
3767;SDS011;1899;49.966;7.106;2023-04-24T13:22:16;6.70;;;4.20;;
3767;SDS011;1899;49.966;7.106;2023-04-24T13:24:43;4.47;;;3.93;;
3767;SDS011;1899;49.966;7.106;2023-04-24T13:27:08;5.97;;;4.87;;
3767;SDS011;1899;49.966;7.106;2023-04-24T13:29:34;7.47;;;4.93;;
3767;SDS011;1899;49.966;7.106;2023-04-24T13:32:00;5.30;;;4.80;;
3767;SDS011;1899;49.966;7.106;2023-04-24T13:34:25;5.13;;;4.53;;
3767;SDS011;1899;49.966;7.106;2023-04-24T13:36:54;6.27;;;3.83;;
3767;SDS011;1899;49.966;7.106;2023-04-24T13:39:20;7.30;;;5.40;;
3767;SDS011;1899;49.966;7.106;2023-04-24T13:41:46;6.90;;;3.70;;
3767;SDS011;1899;49.966;7.106;2023-04-24T13:44:18;7.37;;;4.70;;
3767;SDS011;1899;49.966;7.106;2023-04-24T13:46:44;4.47;;;4.07;;
3767;SDS011;1899;49.966;7.106;2023-04-24T13:49:10;6.27;;;4.50;;
3767;SDS011;1899;49.966;7.106;2023-04-24T13:51:36;4.57;;;4.00;;
3767;SDS011;1899;49.966;7.106;2023-04-24T13:54:01;6.03;;;4.93;;
3767;SDS011;1899;49.966;7.106;2023-04-24T13:56:26;5.00;;;4.27;;
3767;SDS011;1899;49.966;7.106;2023-04-24T13:58:52;4.50;;;3.83;;
3767;SDS011;1899;49.966;7.106;2023-04-24T14:01:19;5.40;;;4.40;;
3767;SDS011;1899;49.966;7.106;2023-04-24T14:03:44;7.80;;;4.67;;
3767;SDS011;1899;49.966;7.106;2023-04-24T14:06:09;7.47;;;5.17;;
3767;SDS011;1899;49.966;7.106;2023-04-24T14:08:35;5.30;;;4.20;;
3767;SDS011;1899;49.966;7.106;2023-04-24T14:11:00;5.53;;;4.33;;
3767;SDS011;1899;49.966;7.106;2023-04-24T14:13:25;4.63;;;4.13;;
3767;SDS011;1899;49.966;7.106;2023-04-24T14:15:51;5.37;;;4.87;;
3767;SDS011;1899;49.966;7.106;2023-04-24T14:18:17;4.40;;;4.00;;
3767;SDS011;1899;49.966;7.106;2023-04-24T14:20:42;4.27;;;3.87;;
3767;SDS011;1899;49.966;7.106;2023-04-24T14:23:08;5.20;;;3.97;;
3767;SDS011;1899;49.966;7.106;2023-04-24T14:25:33;4.53;;;4.10;;
3767;SDS011;1899;49.966;7.106;2023-04-24T14:27:58;5.00;;;4.50;;
3767;SDS011;1899;49.966;7.106;2023-04-24T14:30:24;5.30;;;4.57;;
3767;SDS011;1899;49.966;7.106;2023-04-24T14:32:49;4.13;;;3.77;;
3767;SDS011;1899;49.966;7.106;2023-04-24T14:35:14;4.30;;;3.23;;
3767;SDS011;1899;49.966;7.106;2023-04-24T14:37:40;5.07;;;3.50;;
3767;SDS011;1899;49.966;7.106;2023-04-24T14:40:08;3.87;;;3.30;;
3767;SDS011;1899;49.966;7.106;2023-04-24T14:42:34;3.90;;;3.30;;
3767;SDS011;1899;49.966;7.106;2023-04-24T14:45:00;3.60;;;3.30;;
3767;SDS011;1899;49.966;7.106;2023-04-24T14:47:25;3.63;;;2.93;;
3767;SDS011;1899;49.966;7.106;2023-04-24T14:49:51;4.17;;;3.63;;
3767;SDS011;1899;49.966;7.106;2023-04-24T14:52:16;2.83;;;2.57;;
3767;SDS011;1899;49.966;7.106;2023-04-24T14:54:42;3.23;;;2.50;;
3767;SDS011;1899;49.966;7.106;2023-04-24T14:57:07;4.67;;;3.47;;
3767;SDS011;1899;49.966;7.106;2023-04-24T14:59:33;4.43;;;2.87;;
3767;SDS011;1899;49.966;7.106;2023-04-24T15:01:58;3.47;;;3.27;;
3767;SDS011;1899;49.966;7.106;2023-04-24T15:04:24;4.47;;;2.87;;
3767;SDS011;1899;49.966;7.106;2023-04-24T15:06:50;3.80;;;3.50;;
3767;SDS011;1899;49.966;7.106;2023-04-24T15:09:16;3.57;;;3.10;;
3767;SDS011;1899;49.966;7.106;2023-04-24T15:11:41;10.87;;;4.10;;
3767;SDS011;1899;49.966;7.106;2023-04-24T15:14:06;4.57;;;2.87;;
3767;SDS011;1899;49.966;7.106;2023-04-24T15:16:31;3.40;;;3.10;;
3767;SDS011;1899;49.966;7.106;2023-04-24T15:18:57;3.87;;;3.47;;
3767;SDS011;1899;49.966;7.106;2023-04-24T15:21:22;4.03;;;3.07;;
3767;SDS011;1899;49.966;7.106;2023-04-24T15:23:47;3.90;;;3.50;;
3767;SDS011;1899;49.966;7.106;2023-04-24T15:26:12;4.50;;;4.10;;
3767;SDS011;1899;49.966;7.106;2023-04-24T15:28:38;5.90;;;4.03;;
3767;SDS011;1899;49.966;7.106;2023-04-24T15:31:03;4.00;;;3.63;;
3767;SDS011;1899;49.966;7.106;2023-04-24T15:33:28;5.10;;;3.93;;
3767;SDS011;1899;49.966;7.106;2023-04-24T15:35:54;4.47;;;4.07;;
3767;SDS011;1899;49.966;7.106;2023-04-24T15:38:19;4.80;;;3.77;;
3767;SDS011;1899;49.966;7.106;2023-04-24T15:40:44;5.37;;;4.53;;
3767;SDS011;1899;49.966;7.106;2023-04-24T15:43:09;4.57;;;4.17;;
3767;SDS011;1899;49.966;7.106;2023-04-24T15:45:35;3.80;;;3.50;;
3767;SDS011;1899;49.966;7.106;2023-04-24T15:48:01;4.90;;;4.20;;
3767;SDS011;1899;49.966;7.106;2023-04-24T15:50:26;4.10;;;3.70;;
3767;SDS011;1899;49.966;7.106;2023-04-24T15:52:51;5.33;;;3.80;;
3767;SDS011;1899;49.966;7.106;2023-04-24T15:55:16;3.90;;;3.60;;
3767;SDS011;1899;49.966;7.106;2023-04-24T15:57:42;5.53;;;4.43;;
3767;SDS011;1899;49.966;7.106;2023-04-24T16:00:07;3.40;;;3.10;;
3767;SDS011;1899;49.966;7.106;2023-04-24T16:02:34;4.90;;;4.40;;
3767;SDS011;1899;49.966;7.106;2023-04-24T16:05:00;4.10;;;3.43;;
3767;SDS011;1899;49.966;7.106;2023-04-24T16:07:25;3.97;;;3.47;;
3767;SDS011;1899;49.966;7.106;2023-04-24T16:09:50;3.57;;;3.00;;
3767;SDS011;1899;49.966;7.106;2023-04-24T16:12:16;5.23;;;4.57;;
3767;SDS011;1899;49.966;7.106;2023-04-24T16:14:41;3.40;;;2.93;;
3767;SDS011;1899;49.966;7.106;2023-04-24T16:17:06;3.87;;;3.30;;
3767;SDS011;1899;49.966;7.106;2023-04-24T16:19:31;3.53;;;3.20;;
3767;SDS011;1899;49.966;7.106;2023-04-24T16:22:00;4.70;;;4.30;;
3767;SDS011;1899;49.966;7.106;2023-04-24T16:24:25;3.90;;;3.10;;
3767;SDS011;1899;49.966;7.106;2023-04-24T16:26:51;4.63;;;3.83;;
3767;SDS011;1899;49.966;7.106;2023-04-24T16:29:16;4.23;;;3.63;;
3767;SDS011;1899;49.966;7.106;2023-04-24T16:31:41;4.80;;;4.27;;
3767;SDS011;1899;49.966;7.106;2023-04-24T16:34:07;4.07;;;3.67;;
3767;SDS011;1899;49.966;7.106;2023-04-24T16:36:32;4.73;;;4.27;;
3767;SDS011;1899;49.966;7.106;2023-04-24T16:38:57;5.43;;;4.27;;
3767;SDS011;1899;49.966;7.106;2023-04-24T16:41:25;4.87;;;4.23;;
3767;SDS011;1899;49.966;7.106;2023-04-24T16:43:50;4.63;;;4.17;;
3767;SDS011;1899;49.966;7.106;2023-04-24T16:46:15;5.90;;;3.60;;
3767;SDS011;1899;49.966;7.106;2023-04-24T16:48:40;6.60;;;4.10;;
3767;SDS011;1899;49.966;7.106;2023-04-24T16:51:06;5.10;;;4.03;;
3767;SDS011;1899;49.966;7.106;2023-04-24T16:53:31;5.93;;;3.90;;
3767;SDS011;1899;49.966;7.106;2023-04-24T16:55:56;4.60;;;4.17;;
3767;SDS011;1899;49.966;7.106;2023-04-24T16:58:21;4.53;;;3.83;;
3767;SDS011;1899;49.966;7.106;2023-04-24T17:00:47;5.33;;;4.17;;
3767;SDS011;1899;49.966;7.106;2023-04-24T17:03:12;3.90;;;3.50;;
3767;SDS011;1899;49.966;7.106;2023-04-24T17:05:38;8.37;;;4.20;;
3767;SDS011;1899;49.966;7.106;2023-04-24T17:08:03;4.77;;;4.33;;
3767;SDS011;1899;49.966;7.106;2023-04-24T17:10:28;5.80;;;4.00;;
3767;SDS011;1899;49.966;7.106;2023-04-24T17:12:53;4.27;;;3.67;;
3767;SDS011;1899;49.966;7.106;2023-04-24T17:15:19;3.90;;;3.50;;
3767;SDS011;1899;49.966;7.106;2023-04-24T17:17:44;4.47;;;4.07;;
3767;SDS011;1899;49.966;7.106;2023-04-24T17:20:10;4.93;;;4.07;;
3767;SDS011;1899;49.966;7.106;2023-04-24T17:22:36;4.70;;;4.30;;
3767;SDS011;1899;49.966;7.106;2023-04-24T17:25:01;4.17;;;3.77;;
3767;SDS011;1899;49.966;7.106;2023-04-24T17:27:26;3.83;;;3.53;;
3767;SDS011;1899;49.966;7.106;2023-04-24T17:29:51;5.67;;;4.37;;
3767;SDS011;1899;49.966;7.106;2023-04-24T17:32:17;5.23;;;4.73;;
3767;SDS011;1899;49.966;7.106;2023-04-24T17:34:42;5.30;;;4.90;;
3767;SDS011;1899;49.966;7.106;2023-04-24T17:37:07;5.87;;;4.83;;
3767;SDS011;1899;49.966;7.106;2023-04-24T17:39:33;5.57;;;4.83;;
3767;SDS011;1899;49.966;7.106;2023-04-24T17:41:58;4.97;;;4.53;;
3767;SDS011;1899;49.966;7.106;2023-04-24T17:44:23;4.37;;;3.90;;
3767;SDS011;1899;49.966;7.106;2023-04-24T17:46:48;5.80;;;4.63;;
3767;SDS011;1899;49.966;7.106;2023-04-24T17:49:14;5.37;;;4.87;;
3767;SDS011;1899;49.966;7.106;2023-04-24T17:51:39;6.20;;;4.70;;
3767;SDS011;1899;49.966;7.106;2023-04-24T17:54:05;8.50;;;5.30;;
3767;SDS011;1899;49.966;7.106;2023-04-24T17:56:30;4.63;;;4.23;;
3767;SDS011;1899;49.966;7.106;2023-04-24T17:58:55;5.07;;;4.57;;
3767;SDS011;1899;49.966;7.106;2023-04-24T18:01:22;5.43;;;4.87;;
3767;SDS011;1899;49.966;7.106;2023-04-24T18:03:48;7.53;;;6.00;;
3767;SDS011;1899;49.966;7.106;2023-04-24T18:06:13;5.63;;;5.13;;
3767;SDS011;1899;49.966;7.106;2023-04-24T18:08:41;6.70;;;4.90;;
3767;SDS011;1899;49.966;7.106;2023-04-24T18:11:07;6.27;;;4.60;;
3767;SDS011;1899;49.966;7.106;2023-04-24T18:13:33;6.00;;;4.83;;
3767;SDS011;1899;49.966;7.106;2023-04-24T18:15:58;5.43;;;3.90;;
3767;SDS011;1899;49.966;7.106;2023-04-24T18:18:23;3.87;;;3.50;;
3767;SDS011;1899;49.966;7.106;2023-04-24T18:20:48;4.93;;;4.43;;
3767;SDS011;1899;49.966;7.106;2023-04-24T18:23:14;4.73;;;4.23;;
3767;SDS011;1899;49.966;7.106;2023-04-24T18:25:39;5.63;;;5.13;;
3767;SDS011;1899;49.966;7.106;2023-04-24T18:28:04;8.23;;;4.63;;
3767;SDS011;1899;49.966;7.106;2023-04-24T18:30:30;6.07;;;5.47;;
3767;SDS011;1899;49.966;7.106;2023-04-24T18:32:56;4.97;;;4.50;;
3767;SDS011;1899;49.966;7.106;2023-04-24T18:35:22;5.93;;;4.80;;
3767;SDS011;1899;49.966;7.106;2023-04-24T18:37:47;8.53;;;5.50;;
3767;SDS011;1899;49.966;7.106;2023-04-24T18:40:13;7.90;;;5.53;;
3767;SDS011;1899;49.966;7.106;2023-04-24T18:42:38;6.57;;;5.13;;
3767;SDS011;1899;49.966;7.106;2023-04-24T18:45:04;7.00;;;5.47;;
3767;SDS011;1899;49.966;7.106;2023-04-24T18:47:29;5.70;;;5.17;;
3767;SDS011;1899;49.966;7.106;2023-04-24T18:49:55;5.47;;;4.97;;
3767;SDS011;1899;49.966;7.106;2023-04-24T18:52:20;6.13;;;5.17;;
3767;SDS011;1899;49.966;7.106;2023-04-24T18:54:46;8.00;;;6.23;;
3767;SDS011;1899;49.966;7.106;2023-04-24T18:57:12;7.10;;;6.37;;
3767;SDS011;1899;49.966;7.106;2023-04-24T18:59:37;8.03;;;7.10;;
3767;SDS011;1899;49.966;7.106;2023-04-24T19:02:03;11.83;;;7.60;;
3767;SDS011;1899;49.966;7.106;2023-04-24T19:04:28;9.00;;;7.40;;
3767;SDS011;1899;49.966;7.106;2023-04-24T19:06:53;6.73;;;6.00;;
3767;SDS011;1899;49.966;7.106;2023-04-24T19:09:19;8.50;;;6.73;;